sensor_id;sensor_type;location;lat;lon;timestamp;pressure;altitude;pressure_sealevel;temperature;humidity
63654;BME280;49809;47.418;19.080;2024-03-29T00:01:29;99588.09;;;6.76;100.00
63654;BME280;49809;47.418;19.080;2024-03-29T00:04:31;99593.69;;;6.80;100.00
63654;BME280;49809;47.418;19.080;2024-03-29T00:07:33;99623.97;;;6.82;100.00
63654;BME280;49809;47.418;19.080;2024-03-29T00:10:42;99643.87;;;6.78;100.00
63654;BME280;49809;47.418;19.080;2024-03-29T00:13:44;99646.28;;;6.80;100.00
63654;BME280;49809;47.418;19.080;2024-03-29T00:16:47;99660.47;;;6.79;100.00
63654;BME280;49809;47.418;19.080;2024-03-29T00:19:49;99671.56;;;6.81;100.00
63654;BME280;49809;47.418;19.080;2024-03-29T00:23:12;99690.50;;;6.83;100.00
63654;BME280;49809;47.418;19.080;2024-03-29T00:26:41;99693.47;;;6.86;100.00
63654;BME280;49809;47.418;19.080;2024-03-29T00:30:08;99703.13;;;6.81;100.00
63654;BME280;49809;47.418;19.080;2024-03-29T00:33:09;99707.81;;;6.79;100.00
63654;BME280;49809;47.418;19.080;2024-03-29T00:36:14;99712.75;;;6.75;100.00
63654;BME280;49809;47.418;19.080;2024-03-29T00:39:16;99711.16;;;6.74;100.00
63654;BME280;49809;47.418;19.080;2024-03-29T00:42:24;99724.25;;;6.69;100.00
63654;BME280;49809;47.418;19.080;2024-03-29T00:45:26;99718.19;;;6.69;100.00
63654;BME280;49809;47.418;19.080;2024-03-29T00:48:45;99722.81;;;6.62;100.00
63654;BME280;49809;47.418;19.080;2024-03-29T00:51:48;99722.31;;;6.65;100.00
63654;BME280;49809;47.418;19.080;2024-03-29T00:54:52;99735.47;;;6.65;100.00
63654;BME280;49809;47.418;19.080;2024-03-29T00:57:55;99746.56;;;6.67;100.00
63654;BME280;49809;47.418;19.080;2024-03-29T01:00:57;99749.66;;;6.64;100.00
63654;BME280;49809;47.418;19.080;2024-03-29T01:04:01;99751.16;;;6.60;100.00
63654;BME280;49809;47.418;19.080;2024-03-29T01:07:06;99733.66;;;6.65;100.00
63654;BME280;49809;47.418;19.080;2024-03-29T01:10:10;99744.16;;;6.65;100.00
63654;BME280;49809;47.418;19.080;2024-03-29T01:13:32;99749.13;;;6.62;100.00
63654;BME280;49809;47.418;19.080;2024-03-29T01:16:36;99748.53;;;6.60;100.00
63654;BME280;49809;47.418;19.080;2024-03-29T01:19:41;99755.16;;;6.45;100.00
63654;BME280;49809;47.418;19.080;2024-03-29T01:22:48;99761.72;;;6.31;100.00
63654;BME280;49809;47.418;19.080;2024-03-29T01:25:50;99784.75;;;6.24;100.00
63654;BME280;49809;47.418;19.080;2024-03-29T01:28:52;99793.16;;;6.09;100.00
63654;BME280;49809;47.418;19.080;2024-03-29T01:31:55;99790.13;;;5.89;100.00
63654;BME280;49809;47.418;19.080;2024-03-29T01:34:59;99784.84;;;5.78;100.00
63654;BME280;49809;47.418;19.080;2024-03-29T01:38:24;99791.50;;;5.68;100.00
63654;BME280;49809;47.418;19.080;2024-03-29T01:41:56;99788.44;;;5.48;100.00
63654;BME280;49809;47.418;19.080;2024-03-29T01:45:00;99788.00;;;5.40;100.00
63654;BME280;49809;47.418;19.080;2024-03-29T01:48:01;99797.91;;;5.49;100.00
63654;BME280;49809;47.418;19.080;2024-03-29T01:51:05;99806.59;;;5.38;100.00
63654;BME280;49809;47.418;19.080;2024-03-29T01:54:27;99818.03;;;5.32;100.00
63654;BME280;49809;47.418;19.080;2024-03-29T01:58:11;99817.53;;;5.23;100.00
63654;BME280;49809;47.418;19.080;2024-03-29T02:01:40;99830.44;;;5.02;100.00
63654;BME280;49809;47.418;19.080;2024-03-29T02:12:39;99865.38;;;4.72;100.00
63654;BME280;49809;47.418;19.080;2024-03-29T02:15:56;99876.31;;;4.69;100.00
63654;BME280;49809;47.418;19.080;2024-03-29T02:26:36;99917.84;;;4.54;100.00
63654;BME280;49809;47.418;19.080;2024-03-29T02:30:16;99917.25;;;4.52;100.00
63654;BME280;49809;47.418;19.080;2024-03-29T02:33:36;99931.38;;;4.51;100.00
63654;BME280;49809;47.418;19.080;2024-03-29T02:36:54;99938.31;;;4.75;100.00
63654;BME280;49809;47.418;19.080;2024-03-29T02:40:27;99949.97;;;4.79;100.00
63654;BME280;49809;47.418;19.080;2024-03-29T02:44:04;99960.97;;;4.70;100.00
63654;BME280;49809;47.418;19.080;2024-03-29T02:47:37;99965.59;;;4.56;100.00
63654;BME280;49809;47.418;19.080;2024-03-29T02:50:55;99978.84;;;4.43;100.00
63654;BME280;49809;47.418;19.080;2024-03-29T02:54:14;99975.50;;;4.36;100.00
63654;BME280;49809;47.418;19.080;2024-03-29T03:01:20;99972.16;;;4.11;100.00
63654;BME280;49809;47.418;19.080;2024-03-29T03:04:37;99971.69;;;4.14;100.00
63654;BME280;49809;47.418;19.080;2024-03-29T03:07:56;99974.97;;;4.09;100.00
63654;BME280;49809;47.418;19.080;2024-03-29T03:11:46;99969.06;;;3.96;100.00
63654;BME280;49809;47.418;19.080;2024-03-29T03:15:07;99984.50;;;3.79;100.00
63654;BME280;49809;47.418;19.080;2024-03-29T03:22:18;99996.06;;;3.96;100.00
63654;BME280;49809;47.418;19.080;2024-03-29T03:26:02;99995.78;;;3.79;100.00
63654;BME280;49809;47.418;19.080;2024-03-29T03:29:45;100001.88;;;3.73;100.00
63654;BME280;49809;47.418;19.080;2024-03-29T03:33:05;100003.31;;;3.69;100.00
63654;BME280;49809;47.418;19.080;2024-03-29T03:39:56;100009.66;;;3.55;100.00
63654;BME280;49809;47.418;19.080;2024-03-29T03:43:21;100012.72;;;3.52;100.00
63654;BME280;49809;47.418;19.080;2024-03-29T03:46:51;100018.19;;;3.44;100.00
63654;BME280;49809;47.418;19.080;2024-03-29T03:50:11;100022.41;;;3.45;100.00
63654;BME280;49809;47.418;19.080;2024-03-29T03:53:32;100034.75;;;3.38;100.00
63654;BME280;49809;47.418;19.080;2024-03-29T03:56:49;100031.09;;;3.39;100.00
63654;BME280;49809;47.418;19.080;2024-03-29T04:00:27;100033.66;;;3.52;100.00
63654;BME280;49809;47.418;19.080;2024-03-29T04:03:52;100030.59;;;3.55;100.00
63654;BME280;49809;47.418;19.080;2024-03-29T04:07:14;100039.56;;;3.41;100.00
63654;BME280;49809;47.418;19.080;2024-03-29T04:10:32;100043.31;;;3.52;100.00
63654;BME280;49809;47.418;19.080;2024-03-29T04:13:58;100046.41;;;3.42;100.00
63654;BME280;49809;47.418;19.080;2024-03-29T04:17:23;100057.53;;;3.31;100.00
63654;BME280;49809;47.418;19.080;2024-03-29T04:20:46;100061.81;;;3.19;100.00
63654;BME280;49809;47.418;19.080;2024-03-29T04:27:50;100081.66;;;3.33;100.00
63654;BME280;49809;47.418;19.080;2024-03-29T04:38:46;100099.19;;;3.32;100.00
63654;BME280;49809;47.418;19.080;2024-03-29T04:42:05;100090.34;;;3.27;100.00
63654;BME280;49809;47.418;19.080;2024-03-29T04:45:35;100097.59;;;3.25;100.00
63654;BME280;49809;47.418;19.080;2024-03-29T04:48:52;100107.72;;;3.15;100.00
63654;BME280;49809;47.418;19.080;2024-03-29T04:52:18;100112.69;;;3.23;100.00
63654;BME280;49809;47.418;19.080;2024-03-29T04:55:38;100114.13;;;3.19;100.00
63654;BME280;49809;47.418;19.080;2024-03-29T04:59:13;100116.69;;;3.32;100.00
63654;BME280;49809;47.418;19.080;2024-03-29T05:02:37;100119.84;;;3.47;100.00
63654;BME280;49809;47.418;19.080;2024-03-29T05:05:58;100129.22;;;3.61;100.00
63654;BME280;49809;47.418;19.080;2024-03-29T05:09:29;100134.81;;;3.65;100.00
63654;BME280;49809;47.418;19.080;2024-03-29T05:12:58;100138.81;;;3.74;100.00
63654;BME280;49809;47.418;19.080;2024-03-29T05:16:40;100145.56;;;3.88;100.00
63654;BME280;49809;47.418;19.080;2024-03-29T05:20:09;100167.66;;;3.99;100.00
63654;BME280;49809;47.418;19.080;2024-03-29T05:23:29;100163.94;;;4.13;100.00
63654;BME280;49809;47.418;19.080;2024-03-29T05:26:59;100155.28;;;4.37;100.00
63654;BME280;49809;47.418;19.080;2024-03-29T05:30:29;100151.81;;;4.43;100.00
63654;BME280;49809;47.418;19.080;2024-03-29T05:33:51;100157.22;;;4.48;100.00
63654;BME280;49809;47.418;19.080;2024-03-29T05:37:19;100160.16;;;4.58;100.00
63654;BME280;49809;47.418;19.080;2024-03-29T05:40:47;100168.34;;;4.68;100.00
63654;BME280;49809;47.418;19.080;2024-03-29T05:59:57;100200.16;;;5.51;100.00
63654;BME280;49809;47.418;19.080;2024-03-29T06:03:17;100216.84;;;5.57;100.00
63654;BME280;49809;47.418;19.080;2024-03-29T06:07:08;100218.94;;;5.66;100.00
63654;BME280;49809;47.418;19.080;2024-03-29T06:10:45;100221.97;;;5.82;100.00
63654;BME280;49809;47.418;19.080;2024-03-29T06:14:09;100219.53;;;5.87;100.00
63654;BME280;49809;47.418;19.080;2024-03-29T06:17:35;100221.28;;;5.93;100.00
63654;BME280;49809;47.418;19.080;2024-03-29T06:25:04;100218.97;;;6.26;100.00
63654;BME280;49809;47.418;19.080;2024-03-29T06:28:23;100211.47;;;6.41;100.00
63654;BME280;49809;47.418;19.080;2024-03-29T06:31:32;100214.97;;;6.77;100.00
63654;BME280;49809;47.418;19.080;2024-03-29T06:34:59;100211.53;;;7.11;100.00
63654;BME280;49809;47.418;19.080;2024-03-29T06:38:28;100223.75;;;7.40;100.00
63654;BME280;49809;47.418;19.080;2024-03-29T06:45:19;100240.63;;;7.96;100.00
63654;BME280;49809;47.418;19.080;2024-03-29T06:48:39;100238.59;;;7.86;100.00
63654;BME280;49809;47.418;19.080;2024-03-29T07:26:03;100253.59;;;10.35;90.83
63654;BME280;49809;47.418;19.080;2024-03-29T07:33:31;100274.78;;;10.99;91.63
63654;BME280;49809;47.418;19.080;2024-03-29T07:55:59;100264.25;;;11.56;79.60
63654;BME280;49809;47.418;19.080;2024-03-29T08:03:05;100260.03;;;12.62;80.25
63654;BME280;49809;47.418;19.080;2024-03-29T08:06:33;100264.25;;;12.94;75.57
63654;BME280;49809;47.418;19.080;2024-03-29T08:25:10;100260.59;;;14.67;64.58
63654;BME280;49809;47.418;19.080;2024-03-29T08:28:27;100260.59;;;15.01;66.16
63654;BME280;49809;47.418;19.080;2024-03-29T08:31:32;100257.69;;;15.74;64.90
63654;BME280;49809;47.418;19.080;2024-03-29T08:34:54;100255.72;;;16.41;61.10
63654;BME280;49809;47.418;19.080;2024-03-29T08:37:56;100245.19;;;16.31;58.80
63654;BME280;49809;47.418;19.080;2024-03-29T08:41:01;100240.84;;;15.97;61.15
63654;BME280;49809;47.418;19.080;2024-03-29T08:44:28;100246.75;;;16.69;56.07
63654;BME280;49809;47.418;19.080;2024-03-29T08:47:48;100252.34;;;17.00;56.76
63654;BME280;49809;47.418;19.080;2024-03-29T08:51:12;100256.16;;;17.40;54.39
63654;BME280;49809;47.418;19.080;2024-03-29T08:54:33;100249.19;;;17.53;55.69
63654;BME280;49809;47.418;19.080;2024-03-29T08:57:37;100232.38;;;17.79;54.26
63654;BME280;49809;47.418;19.080;2024-03-29T09:00:59;100223.69;;;18.77;51.86
63654;BME280;49809;47.418;19.080;2024-03-29T09:04:22;100236.97;;;18.59;49.99
63654;BME280;49809;47.418;19.080;2024-03-29T09:07:26;100240.50;;;18.91;48.13
63654;BME280;49809;47.418;19.080;2024-03-29T09:10:32;100224.31;;;19.04;47.73
63654;BME280;49809;47.418;19.080;2024-03-29T09:13:37;100219.66;;;18.88;48.00
63654;BME280;49809;47.418;19.080;2024-03-29T09:16:38;100211.75;;;18.38;51.62
63654;BME280;49809;47.418;19.080;2024-03-29T09:19:44;100200.38;;;18.86;47.34
63654;BME280;49809;47.418;19.080;2024-03-29T09:22:50;100207.69;;;18.49;48.53
63654;BME280;49809;47.418;19.080;2024-03-29T09:25:56;100206.13;;;18.71;48.07
63654;BME280;49809;47.418;19.080;2024-03-29T09:29:22;100221.34;;;17.54;50.40
63654;BME280;49809;47.418;19.080;2024-03-29T09:32:26;100230.37;;;17.58;48.36
63654;BME280;49809;47.418;19.080;2024-03-29T09:36:23;100250.94;;;16.89;50.34
63654;BME280;49809;47.418;19.080;2024-03-29T09:39:45;100227.72;;;17.71;48.14
63654;BME280;49809;47.418;19.080;2024-03-29T09:43:14;100210.72;;;17.90;47.19
63654;BME280;49809;47.418;19.080;2024-03-29T09:46:16;100208.00;;;18.25;46.57
63654;BME280;49809;47.418;19.080;2024-03-29T09:49:21;100202.50;;;18.44;47.05
63654;BME280;49809;47.418;19.080;2024-03-29T09:52:45;100195.78;;;19.17;45.42
63654;BME280;49809;47.418;19.080;2024-03-29T09:55:47;100193.59;;;19.84;44.06
63654;BME280;49809;47.418;19.080;2024-03-29T09:58:49;100194.59;;;19.40;44.77
63654;BME280;49809;47.418;19.080;2024-03-29T10:01:55;100188.28;;;18.66;46.08
63654;BME280;49809;47.418;19.080;2024-03-29T10:05:00;100200.06;;;17.62;48.08
63654;BME280;49809;47.418;19.080;2024-03-29T10:08:06;100193.53;;;17.41;50.85
63654;BME280;49809;47.418;19.080;2024-03-29T10:11:16;100183.63;;;17.42;50.32
63654;BME280;49809;47.418;19.080;2024-03-29T10:14:48;100180.97;;;17.28;50.81
63654;BME280;49809;47.418;19.080;2024-03-29T10:18:10;100168.56;;;17.95;48.81
63654;BME280;49809;47.418;19.080;2024-03-29T10:21:12;100162.19;;;17.55;50.47
63654;BME280;49809;47.418;19.080;2024-03-29T10:24:22;100155.34;;;17.99;48.98
63654;BME280;49809;47.418;19.080;2024-03-29T10:27:26;100161.34;;;17.82;50.36
63654;BME280;49809;47.418;19.080;2024-03-29T10:30:38;100159.37;;;17.74;52.01
63654;BME280;49809;47.418;19.080;2024-03-29T10:34:04;100156.81;;;18.27;49.87
63654;BME280;49809;47.418;19.080;2024-03-29T10:37:41;100156.31;;;18.25;49.02
63654;BME280;49809;47.418;19.080;2024-03-29T10:41:04;100150.59;;;17.96;50.57
63654;BME280;49809;47.418;19.080;2024-03-29T10:44:40;100143.53;;;18.75;49.32
63654;BME280;49809;47.418;19.080;2024-03-29T10:47:44;100138.03;;;18.80;49.03
63654;BME280;49809;47.418;19.080;2024-03-29T10:51:12;100121.00;;;19.41;48.48
63654;BME280;49809;47.418;19.080;2024-03-29T10:54:34;100121.69;;;19.90;47.03
63654;BME280;49809;47.418;19.080;2024-03-29T10:58:04;100113.62;;;19.47;48.35
63654;BME280;49809;47.418;19.080;2024-03-29T11:01:31;100118.50;;;20.22;47.04
63654;BME280;49809;47.418;19.080;2024-03-29T11:04:54;100102.84;;;20.24;49.20
63654;BME280;49809;47.418;19.080;2024-03-29T11:08:26;100096.03;;;20.35;48.54
63654;BME280;49809;47.418;19.080;2024-03-29T11:12:01;100079.78;;;21.70;44.69
63654;BME280;49809;47.418;19.080;2024-03-29T11:15:44;100074.47;;;21.61;44.91
63654;BME280;49809;47.418;19.080;2024-03-29T11:19:13;100068.66;;;21.39;46.22
63654;BME280;49809;47.418;19.080;2024-03-29T11:22:37;100059.03;;;21.50;46.08
63654;BME280;49809;47.418;19.080;2024-03-29T11:26:08;100053.06;;;21.98;44.79
63654;BME280;49809;47.418;19.080;2024-03-29T11:29:32;100050.44;;;21.89;45.76
63654;BME280;49809;47.418;19.080;2024-03-29T11:33:03;100031.91;;;23.06;42.95
63654;BME280;49809;47.418;19.080;2024-03-29T11:39:40;100035.62;;;23.01;43.91
63654;BME280;49809;47.418;19.080;2024-03-29T11:42:52;100031.16;;;22.69;44.11
63654;BME280;49809;47.418;19.080;2024-03-29T11:46:10;100030.69;;;22.67;44.12
63654;BME280;49809;47.418;19.080;2024-03-29T11:49:18;100022.94;;;22.29;45.17
63654;BME280;49809;47.418;19.080;2024-03-29T11:52:39;100028.13;;;20.85;50.02
63654;BME280;49809;47.418;19.080;2024-03-29T11:56:03;100017.06;;;22.15;46.67
63654;BME280;49809;47.418;19.080;2024-03-29T11:59:27;100019.13;;;22.30;46.43
63654;BME280;49809;47.418;19.080;2024-03-29T12:02:53;100015.28;;;22.67;45.23
63654;BME280;49809;47.418;19.080;2024-03-29T12:06:15;100012.72;;;22.71;45.35
63654;BME280;49809;47.418;19.080;2024-03-29T12:24:30;100000.97;;;19.85;53.13
63654;BME280;49809;47.418;19.080;2024-03-29T12:27:57;99994.00;;;20.01;53.13
63654;BME280;49809;47.418;19.080;2024-03-29T12:31:24;99992.66;;;19.69;54.29
63654;BME280;49809;47.418;19.080;2024-03-29T12:34:45;99986.81;;;19.59;54.47
63654;BME280;49809;47.418;19.080;2024-03-29T12:38:22;99991.09;;;19.17;56.29
63654;BME280;49809;47.418;19.080;2024-03-29T12:41:49;99986.03;;;19.32;56.75
63654;BME280;49809;47.418;19.080;2024-03-29T12:45:10;99991.47;;;19.96;54.26
63654;BME280;49809;47.418;19.080;2024-03-29T12:48:16;99976.56;;;20.16;53.84
63654;BME280;49809;47.418;19.080;2024-03-29T12:51:44;99990.78;;;19.52;55.97
63654;BME280;49809;47.418;19.080;2024-03-29T12:54:50;99979.22;;;19.69;55.16
63654;BME280;49809;47.418;19.080;2024-03-29T12:58:09;99979.72;;;19.20;57.14
63654;BME280;49809;47.418;19.080;2024-03-29T13:01:14;99967.56;;;19.05;57.81
63654;BME280;49809;47.418;19.080;2024-03-29T13:04:44;99984.59;;;19.61;56.88
63654;BME280;49809;47.418;19.080;2024-03-29T13:08:29;99976.84;;;19.76;57.06
63654;BME280;49809;47.418;19.080;2024-03-29T13:11:47;99967.50;;;19.82;55.94
63654;BME280;49809;47.418;19.080;2024-03-29T13:15:21;99965.78;;;20.33;55.22
63654;BME280;49809;47.418;19.080;2024-03-29T13:18:50;99960.97;;;20.38;53.91
63654;BME280;49809;47.418;19.080;2024-03-29T13:22:12;99958.78;;;19.94;55.17
63654;BME280;49809;47.418;19.080;2024-03-29T13:25:40;99961.75;;;20.01;54.68
63654;BME280;49809;47.418;19.080;2024-03-29T13:29:02;99957.91;;;20.49;53.62
63654;BME280;49809;47.418;19.080;2024-03-29T13:32:35;99948.56;;;20.55;54.92
63654;BME280;49809;47.418;19.080;2024-03-29T13:36:03;99955.41;;;20.73;53.42
63654;BME280;49809;47.418;19.080;2024-03-29T13:39:22;99950.69;;;20.70;54.19
63654;BME280;49809;47.418;19.080;2024-03-29T13:42:48;99943.56;;;20.45;53.92
63654;BME280;49809;47.418;19.080;2024-03-29T13:46:06;99949.16;;;20.60;54.01
63654;BME280;49809;47.418;19.080;2024-03-29T13:49:30;99936.31;;;20.87;53.74
63654;BME280;49809;47.418;19.080;2024-03-29T13:52:46;99930.88;;;20.74;53.44
63654;BME280;49809;47.418;19.080;2024-03-29T13:56:08;99940.84;;;20.74;53.50
63654;BME280;49809;47.418;19.080;2024-03-29T13:59:37;99937.69;;;20.51;54.81
63654;BME280;49809;47.418;19.080;2024-03-29T14:03:03;99934.25;;;20.04;55.88
63654;BME280;49809;47.418;19.080;2024-03-29T14:06:28;99935.25;;;19.91;56.94
63654;BME280;49809;47.418;19.080;2024-03-29T14:09:47;99936.81;;;19.92;56.38
63654;BME280;49809;47.418;19.080;2024-03-29T14:17:06;99928.00;;;19.83;57.64
63654;BME280;49809;47.418;19.080;2024-03-29T14:39:09;99917.34;;;21.04;53.08
63654;BME280;49809;47.418;19.080;2024-03-29T14:50:13;99905.09;;;21.48;51.78
63654;BME280;49809;47.418;19.080;2024-03-29T14:53:46;99903.03;;;21.45;52.00
63654;BME280;49809;47.418;19.080;2024-03-29T15:11:17;99889.16;;;20.48;54.62
63654;BME280;49809;47.418;19.080;2024-03-29T15:14:38;99888.53;;;20.63;54.30
63654;BME280;49809;47.418;19.080;2024-03-29T15:17:42;99888.53;;;21.04;52.67
63654;BME280;49809;47.418;19.080;2024-03-29T15:21:01;99893.34;;;21.19;52.45
63654;BME280;49809;47.418;19.080;2024-03-29T15:24:23;99889.38;;;20.96;53.15
63654;BME280;49809;47.418;19.080;2024-03-29T15:27:44;99889.19;;;21.67;51.93
63654;BME280;49809;47.418;19.080;2024-03-29T15:31:34;99869.41;;;21.51;52.23
63654;BME280;49809;47.418;19.080;2024-03-29T15:35:05;99876.91;;;21.33;52.93
63654;BME280;49809;47.418;19.080;2024-03-29T15:38:26;99884.34;;;20.95;54.46
63654;BME280;49809;47.418;19.080;2024-03-29T15:41:57;99891.12;;;20.80;55.33
63654;BME280;49809;47.418;19.080;2024-03-29T15:45:20;99885.47;;;20.73;54.99
63654;BME280;49809;47.418;19.080;2024-03-29T15:48:49;99888.47;;;20.21;56.68
63654;BME280;49809;47.418;19.080;2024-03-29T15:51:54;99884.94;;;20.38;56.50
63654;BME280;49809;47.418;19.080;2024-03-29T15:55:21;99884.53;;;20.19;57.04
63654;BME280;49809;47.418;19.080;2024-03-29T15:58:45;99885.28;;;19.99;57.79
63654;BME280;49809;47.418;19.080;2024-03-29T16:02:05;99879.19;;;19.81;58.59
63654;BME280;49809;47.418;19.080;2024-03-29T16:05:35;99882.13;;;19.41;59.78
63654;BME280;49809;47.418;19.080;2024-03-29T16:08:58;99883.56;;;19.47;59.32
63654;BME280;49809;47.418;19.080;2024-03-29T16:12:28;99876.81;;;19.24;60.26
63654;BME280;49809;47.418;19.080;2024-03-29T16:15:54;99882.19;;;19.16;61.30
63654;BME280;49809;47.418;19.080;2024-03-29T16:19:29;99872.88;;;19.13;61.04
63654;BME280;49809;47.418;19.080;2024-03-29T16:22:51;99867.69;;;18.99;61.50
63654;BME280;49809;47.418;19.080;2024-03-29T16:26:36;99868.78;;;18.90;61.82
63654;BME280;49809;47.418;19.080;2024-03-29T16:30:01;99858.06;;;18.73;62.84
63654;BME280;49809;47.418;19.080;2024-03-29T16:33:25;99858.06;;;18.55;63.48
63654;BME280;49809;47.418;19.080;2024-03-29T16:36:48;99847.91;;;18.35;64.45
63654;BME280;49809;47.418;19.080;2024-03-29T16:47:35;99840.16;;;18.16;65.51
63654;BME280;49809;47.418;19.080;2024-03-29T16:51:06;99842.00;;;17.90;66.77
63654;BME280;49809;47.418;19.080;2024-03-29T16:54:12;99848.75;;;17.88;66.80
63654;BME280;49809;47.418;19.080;2024-03-29T16:57:32;99839.78;;;17.92;66.58
63654;BME280;49809;47.418;19.080;2024-03-29T17:00:57;99846.16;;;17.65;67.89
63654;BME280;49809;47.418;19.080;2024-03-29T17:04:19;99840.66;;;17.48;68.59
63654;BME280;49809;47.418;19.080;2024-03-29T17:07:22;99847.41;;;17.37;69.33
63654;BME280;49809;47.418;19.080;2024-03-29T17:10:48;99842.13;;;17.23;70.28
63654;BME280;49809;47.418;19.080;2024-03-29T17:14:10;99842.97;;;17.10;70.96
63654;BME280;49809;47.418;19.080;2024-03-29T17:17:37;99850.47;;;17.00;71.46
63654;BME280;49809;47.418;19.080;2024-03-29T17:20:39;99858.25;;;16.87;72.12
63654;BME280;49809;47.418;19.080;2024-03-29T17:24:09;99853.00;;;16.82;72.42
63654;BME280;49809;47.418;19.080;2024-03-29T17:27:36;99849.31;;;16.70;72.71
63654;BME280;49809;47.418;19.080;2024-03-29T17:31:11;99843.06;;;16.61;73.26
63654;BME280;49809;47.418;19.080;2024-03-29T17:34:35;99837.16;;;16.50;73.44
63654;BME280;49809;47.418;19.080;2024-03-29T17:38:02;99833.97;;;16.26;74.49
63654;BME280;49809;47.418;19.080;2024-03-29T17:41:06;99836.31;;;16.27;74.73
63654;BME280;49809;47.418;19.080;2024-03-29T17:44:33;99840.09;;;16.13;75.30
63654;BME280;49809;47.418;19.080;2024-03-29T17:47:59;99839.59;;;15.83;76.98
63654;BME280;49809;47.418;19.080;2024-03-29T17:51:27;99846.72;;;15.74;77.07
63654;BME280;49809;47.418;19.080;2024-03-29T17:54:53;99853.34;;;15.63;77.53
63654;BME280;49809;47.418;19.080;2024-03-29T17:58:24;99863.87;;;15.54;77.74
63654;BME280;49809;47.418;19.080;2024-03-29T18:01:45;99850.03;;;15.39;78.68
63654;BME280;49809;47.418;19.080;2024-03-29T18:05:03;99854.34;;;15.35;78.40
63654;BME280;49809;47.418;19.080;2024-03-29T18:08:30;99845.50;;;15.20;79.52
63654;BME280;49809;47.418;19.080;2024-03-29T18:11:45;99856.50;;;15.19;79.40
63654;BME280;49809;47.418;19.080;2024-03-29T18:14:49;99857.69;;;15.27;78.89
63654;BME280;49809;47.418;19.080;2024-03-29T18:18:20;99845.31;;;15.17;79.59
63654;BME280;49809;47.418;19.080;2024-03-29T18:21:43;99852.12;;;15.09;79.57
63654;BME280;49809;47.418;19.080;2024-03-29T18:25:11;99854.88;;;15.04;79.96
63654;BME280;49809;47.418;19.080;2024-03-29T18:28:36;99854.50;;;14.92;80.26
63654;BME280;49809;47.418;19.080;2024-03-29T18:32:06;99849.06;;;14.84;80.40
63654;BME280;49809;47.418;19.080;2024-03-29T18:35:28;99846.75;;;14.96;79.63
63654;BME280;49809;47.418;19.080;2024-03-29T18:38:52;99858.50;;;14.76;80.20
63654;BME280;49809;47.418;19.080;2024-03-29T18:41:53;99862.72;;;14.77;79.82
63654;BME280;49809;47.418;19.080;2024-03-29T18:44:56;99863.25;;;14.79;79.56
63654;BME280;49809;47.418;19.080;2024-03-29T18:48:05;99867.12;;;14.68;80.31
63654;BME280;49809;47.418;19.080;2024-03-29T18:51:09;99868.84;;;14.59;80.91
63654;BME280;49809;47.418;19.080;2024-03-29T18:54:12;99876.78;;;14.64;80.42
63654;BME280;49809;47.418;19.080;2024-03-29T18:57:21;99876.84;;;14.59;80.77
63654;BME280;49809;47.418;19.080;2024-03-29T19:00:23;99877.63;;;14.59;80.91
63654;BME280;49809;47.418;19.080;2024-03-29T19:03:27;99884.28;;;14.62;80.77
63654;BME280;49809;47.418;19.080;2024-03-29T19:06:29;99886.16;;;14.61;80.72
63654;BME280;49809;47.418;19.080;2024-03-29T19:09:52;99889.09;;;14.60;81.18
63654;BME280;49809;47.418;19.080;2024-03-29T19:12:54;99889.69;;;14.57;81.31
63654;BME280;49809;47.418;19.080;2024-03-29T19:16:00;99883.91;;;14.50;81.80
63654;BME280;49809;47.418;19.080;2024-03-29T19:19:01;99876.34;;;14.57;81.27
63654;BME280;49809;47.418;19.080;2024-03-29T19:22:05;99884.19;;;14.48;81.61
63654;BME280;49809;47.418;19.080;2024-03-29T19:25:07;99881.50;;;14.48;81.91
63654;BME280;49809;47.418;19.080;2024-03-29T19:28:09;99875.91;;;14.50;81.70
63654;BME280;49809;47.418;19.080;2024-03-29T19:31:11;99872.78;;;14.43;82.36
63654;BME280;49809;47.418;19.080;2024-03-29T19:34:16;99876.06;;;14.34;83.00
63654;BME280;49809;47.418;19.080;2024-03-29T19:37:23;99877.00;;;14.25;83.24
63654;BME280;49809;47.418;19.080;2024-03-29T19:40:25;99880.13;;;14.08;83.77
63654;BME280;49809;47.418;19.080;2024-03-29T19:43:28;99897.78;;;13.99;84.68
63654;BME280;49809;47.418;19.080;2024-03-29T19:46:59;99903.47;;;13.92;85.30
63654;BME280;49809;47.418;19.080;2024-03-29T19:50:23;99911.59;;;13.77;86.73
63654;BME280;49809;47.418;19.080;2024-03-29T19:53:28;99915.75;;;13.60;87.65
63654;BME280;49809;47.418;19.080;2024-03-29T19:56:49;99924.94;;;13.43;88.59
63654;BME280;49809;47.418;19.080;2024-03-29T19:59:51;99916.06;;;13.24;88.55
63654;BME280;49809;47.418;19.080;2024-03-29T20:03:13;99921.72;;;13.07;88.95
63654;BME280;49809;47.418;19.080;2024-03-29T20:06:36;99914.94;;;12.91;91.12
63654;BME280;49809;47.418;19.080;2024-03-29T20:09:38;99923.22;;;12.80;91.69
63654;BME280;49809;47.418;19.080;2024-03-29T20:12:40;99935.25;;;12.67;93.81
63654;BME280;49809;47.418;19.080;2024-03-29T20:15:46;99938.78;;;12.52;95.09
63654;BME280;49809;47.418;19.080;2024-03-29T20:18:48;99943.31;;;12.42;95.13
63654;BME280;49809;47.418;19.080;2024-03-29T20:21:50;99949.47;;;12.32;96.14
63654;BME280;49809;47.418;19.080;2024-03-29T20:25:15;99950.78;;;12.30;96.15
63654;BME280;49809;47.418;19.080;2024-03-29T20:28:38;99953.16;;;12.36;96.61
63654;BME280;49809;47.418;19.080;2024-03-29T20:31:44;99948.13;;;12.30;96.31
63654;BME280;49809;47.418;19.080;2024-03-29T20:34:48;99959.31;;;12.16;96.20
63654;BME280;49809;47.418;19.080;2024-03-29T20:37:50;99956.41;;;12.13;96.72
63654;BME280;49809;47.418;19.080;2024-03-29T20:40:55;99953.53;;;12.04;97.41